sensor_id;sensor_type;location;lat;lon;timestamp;P1;durP1;ratioP1;P2;durP2;ratioP2
71696;SDS011;68167;59.120;37.898;2024-02-23T00:00:06;19.77;;;9.33;;
71696;SDS011;68167;59.120;37.898;2024-02-23T00:02:33;18.27;;;7.87;;
71696;SDS011;68167;59.120;37.898;2024-02-23T00:05:00;18.27;;;9.50;;
71696;SDS011;68167;59.120;37.898;2024-02-23T00:07:26;24.87;;;9.23;;
71696;SDS011;68167;59.120;37.898;2024-02-23T00:09:52;19.63;;;9.33;;
71696;SDS011;68167;59.120;37.898;2024-02-23T00:12:19;24.53;;;9.37;;
71696;SDS011;68167;59.120;37.898;2024-02-23T00:14:45;17.77;;;8.63;;
71696;SDS011;68167;59.120;37.898;2024-02-23T00:17:11;18.50;;;9.77;;
71696;SDS011;68167;59.120;37.898;2024-02-23T00:19:38;17.87;;;8.63;;
71696;SDS011;68167;59.120;37.898;2024-02-23T00:22:04;16.50;;;8.23;;
71696;SDS011;68167;59.120;37.898;2024-02-23T00:24:30;17.67;;;8.50;;
71696;SDS011;68167;59.120;37.898;2024-02-23T00:26:56;18.97;;;9.37;;
71696;SDS011;68167;59.120;37.898;2024-02-23T00:29:23;22.50;;;9.87;;
71696;SDS011;68167;59.120;37.898;2024-02-23T00:31:49;19.27;;;9.47;;
71696;SDS011;68167;59.120;37.898;2024-02-23T00:34:15;19.07;;;8.70;;
71696;SDS011;68167;59.120;37.898;2024-02-23T00:36:42;18.37;;;8.93;;
71696;SDS011;68167;59.120;37.898;2024-02-23T00:39:10;17.10;;;8.50;;
71696;SDS011;68167;59.120;37.898;2024-02-23T00:41:36;19.07;;;8.83;;
71696;SDS011;68167;59.120;37.898;2024-02-23T00:44:03;15.53;;;8.77;;
71696;SDS011;68167;59.120;37.898;2024-02-23T00:46:29;20.97;;;9.67;;
71696;SDS011;68167;59.120;37.898;2024-02-23T00:48:56;21.23;;;9.23;;
71696;SDS011;68167;59.120;37.898;2024-02-23T00:51:22;21.70;;;9.57;;
71696;SDS011;68167;59.120;37.898;2024-02-23T00:53:48;19.67;;;9.67;;
71696;SDS011;68167;59.120;37.898;2024-02-23T00:56:15;19.00;;;9.80;;
71696;SDS011;68167;59.120;37.898;2024-02-23T00:58:42;20.00;;;9.83;;
71696;SDS011;68167;59.120;37.898;2024-02-23T01:01:09;28.97;;;10.23;;
71696;SDS011;68167;59.120;37.898;2024-02-23T01:03:35;22.77;;;9.90;;
71696;SDS011;68167;59.120;37.898;2024-02-23T01:06:01;19.87;;;9.27;;
71696;SDS011;68167;59.120;37.898;2024-02-23T01:08:28;24.17;;;9.77;;
71696;SDS011;68167;59.120;37.898;2024-02-23T01:10:54;26.87;;;9.17;;
71696;SDS011;68167;59.120;37.898;2024-02-23T01:13:21;25.77;;;13.45;;
71696;SDS011;68167;59.120;37.898;2024-02-23T01:15:47;25.27;;;11.90;;
71696;SDS011;68167;59.120;37.898;2024-02-23T01:18:13;22.27;;;9.13;;
71696;SDS011;68167;59.120;37.898;2024-02-23T01:20:40;24.23;;;10.13;;
71696;SDS011;68167;59.120;37.898;2024-02-23T01:23:06;21.60;;;10.50;;
71696;SDS011;68167;59.120;37.898;2024-02-23T01:25:32;25.10;;;11.13;;
71696;SDS011;68167;59.120;37.898;2024-02-23T01:28:00;22.10;;;10.07;;
71696;SDS011;68167;59.120;37.898;2024-02-23T01:30:27;25.60;;;10.17;;
71696;SDS011;68167;59.120;37.898;2024-02-23T01:32:53;30.10;;;10.80;;
71696;SDS011;68167;59.120;37.898;2024-02-23T01:35:19;24.20;;;10.43;;
71696;SDS011;68167;59.120;37.898;2024-02-23T01:37:46;25.57;;;10.03;;
71696;SDS011;68167;59.120;37.898;2024-02-23T01:40:12;23.13;;;10.50;;
71696;SDS011;68167;59.120;37.898;2024-02-23T01:42:38;28.77;;;11.37;;
71696;SDS011;68167;59.120;37.898;2024-02-23T01:45:05;23.37;;;10.07;;
71696;SDS011;68167;59.120;37.898;2024-02-23T01:47:32;19.30;;;9.70;;
71696;SDS011;68167;59.120;37.898;2024-02-23T01:49:58;25.03;;;10.13;;
71696;SDS011;68167;59.120;37.898;2024-02-23T01:52:25;25.70;;;10.17;;
71696;SDS011;68167;59.120;37.898;2024-02-23T01:54:52;22.57;;;10.33;;
71696;SDS011;68167;59.120;37.898;2024-02-23T01:57:20;26.93;;;11.13;;
71696;SDS011;68167;59.120;37.898;2024-02-23T01:59:47;20.97;;;10.67;;
71696;SDS011;68167;59.120;37.898;2024-02-23T02:02:15;27.80;;;10.73;;
71696;SDS011;68167;59.120;37.898;2024-02-23T02:04:41;25.43;;;10.47;;
71696;SDS011;68167;59.120;37.898;2024-02-23T02:07:08;20.70;;;9.50;;
71696;SDS011;68167;59.120;37.898;2024-02-23T02:09:35;20.53;;;9.47;;
71696;SDS011;68167;59.120;37.898;2024-02-23T02:12:01;23.57;;;10.10;;
71696;SDS011;68167;59.120;37.898;2024-02-23T02:14:28;23.30;;;10.00;;
71696;SDS011;68167;59.120;37.898;2024-02-23T02:16:57;26.07;;;11.13;;
71696;SDS011;68167;59.120;37.898;2024-02-23T02:19:23;21.93;;;10.27;;
71696;SDS011;68167;59.120;37.898;2024-02-23T02:21:50;27.53;;;10.57;;
71696;SDS011;68167;59.120;37.898;2024-02-23T02:24:16;25.17;;;10.20;;
71696;SDS011;68167;59.120;37.898;2024-02-23T02:26:43;23.37;;;10.83;;
71696;SDS011;68167;59.120;37.898;2024-02-23T02:29:11;25.73;;;10.43;;
71696;SDS011;68167;59.120;37.898;2024-02-23T02:31:37;24.33;;;10.67;;
71696;SDS011;68167;59.120;37.898;2024-02-23T02:34:04;23.67;;;10.60;;
71696;SDS011;68167;59.120;37.898;2024-02-23T02:36:30;22.77;;;9.67;;
71696;SDS011;68167;59.120;37.898;2024-02-23T02:38:57;23.23;;;11.67;;
71696;SDS011;68167;59.120;37.898;2024-02-23T02:41:24;25.13;;;10.70;;
71696;SDS011;68167;59.120;37.898;2024-02-23T02:43:55;27.50;;;11.63;;
71696;SDS011;68167;59.120;37.898;2024-02-23T02:46:21;21.17;;;9.97;;
71696;SDS011;68167;59.120;37.898;2024-02-23T02:48:48;26.83;;;11.40;;
71696;SDS011;68167;59.120;37.898;2024-02-23T02:51:14;26.77;;;10.97;;
71696;SDS011;68167;59.120;37.898;2024-02-23T02:53:40;24.03;;;10.23;;
71696;SDS011;68167;59.120;37.898;2024-02-23T02:56:07;22.10;;;10.07;;
71696;SDS011;68167;59.120;37.898;2024-02-23T02:58:33;28.07;;;10.93;;
71696;SDS011;68167;59.120;37.898;2024-02-23T03:00:59;24.03;;;10.63;;
71696;SDS011;68167;59.120;37.898;2024-02-23T03:03:26;23.57;;;10.73;;
71696;SDS011;68167;59.120;37.898;2024-02-23T03:05:52;24.63;;;10.97;;
71696;SDS011;68167;59.120;37.898;2024-02-23T03:08:18;24.63;;;10.60;;
71696;SDS011;68167;59.120;37.898;2024-02-23T03:10:44;19.07;;;9.97;;
71696;SDS011;68167;59.120;37.898;2024-02-23T03:13:10;21.23;;;10.67;;
71696;SDS011;68167;59.120;37.898;2024-02-23T03:15:37;22.90;;;9.50;;
71696;SDS011;68167;59.120;37.898;2024-02-23T03:18:03;27.87;;;10.87;;
71696;SDS011;68167;59.120;37.898;2024-02-23T03:20:29;19.57;;;9.70;;
71696;SDS011;68167;59.120;37.898;2024-02-23T03:22:56;28.33;;;10.27;;
71696;SDS011;68167;59.120;37.898;2024-02-23T03:25:22;24.40;;;10.20;;
71696;SDS011;68167;59.120;37.898;2024-02-23T03:27:48;21.10;;;9.67;;
71696;SDS011;68167;59.120;37.898;2024-02-23T03:30:15;24.23;;;10.23;;
71696;SDS011;68167;59.120;37.898;2024-02-23T03:32:41;25.67;;;12.70;;
71696;SDS011;68167;59.120;37.898;2024-02-23T03:35:08;18.97;;;9.80;;
71696;SDS011;68167;59.120;37.898;2024-02-23T03:37:34;22.90;;;10.93;;
71696;SDS011;68167;59.120;37.898;2024-02-23T03:40:01;20.83;;;9.97;;
71696;SDS011;68167;59.120;37.898;2024-02-23T03:42:28;25.40;;;11.00;;
71696;SDS011;68167;59.120;37.898;2024-02-23T03:44:54;22.07;;;9.80;;
71696;SDS011;68167;59.120;37.898;2024-02-23T03:47:20;22.53;;;10.73;;
71696;SDS011;68167;59.120;37.898;2024-02-23T03:49:47;23.97;;;10.43;;
71696;SDS011;68167;59.120;37.898;2024-02-23T03:52:13;21.30;;;10.17;;
71696;SDS011;68167;59.120;37.898;2024-02-23T03:54:39;25.50;;;9.93;;
71696;SDS011;68167;59.120;37.898;2024-02-23T03:57:06;24.83;;;10.10;;
71696;SDS011;68167;59.120;37.898;2024-02-23T03:59:32;18.63;;;10.33;;
71696;SDS011;68167;59.120;37.898;2024-02-23T04:01:58;22.00;;;9.40;;
71696;SDS011;68167;59.120;37.898;2024-02-23T04:04:25;24.50;;;10.70;;
71696;SDS011;68167;59.120;37.898;2024-02-23T04:06:51;25.33;;;10.43;;
71696;SDS011;68167;59.120;37.898;2024-02-23T04:09:17;25.83;;;11.57;;
71696;SDS011;68167;59.120;37.898;2024-02-23T04:11:43;22.87;;;10.53;;
71696;SDS011;68167;59.120;37.898;2024-02-23T04:14:13;25.80;;;10.80;;
71696;SDS011;68167;59.120;37.898;2024-02-23T04:16:39;28.33;;;10.27;;
71696;SDS011;68167;59.120;37.898;2024-02-23T04:19:05;25.33;;;10.70;;
71696;SDS011;68167;59.120;37.898;2024-02-23T04:21:32;24.03;;;10.47;;
71696;SDS011;68167;59.120;37.898;2024-02-23T04:23:58;24.03;;;10.30;;
71696;SDS011;68167;59.120;37.898;2024-02-23T04:26:24;24.30;;;10.27;;
71696;SDS011;68167;59.120;37.898;2024-02-23T04:28:50;24.63;;;10.27;;
71696;SDS011;68167;59.120;37.898;2024-02-23T04:31:17;24.33;;;11.00;;
71696;SDS011;68167;59.120;37.898;2024-02-23T04:33:43;25.00;;;11.27;;
71696;SDS011;68167;59.120;37.898;2024-02-23T04:36:09;21.73;;;9.57;;
71696;SDS011;68167;59.120;37.898;2024-02-23T04:38:36;20.53;;;9.70;;
71696;SDS011;68167;59.120;37.898;2024-02-23T04:41:02;20.40;;;10.20;;
71696;SDS011;68167;59.120;37.898;2024-02-23T04:43:32;23.13;;;9.77;;
71696;SDS011;68167;59.120;37.898;2024-02-23T04:45:59;26.20;;;11.50;;
71696;SDS011;68167;59.120;37.898;2024-02-23T04:48:25;24.77;;;10.23;;
71696;SDS011;68167;59.120;37.898;2024-02-23T04:50:51;23.90;;;10.30;;
71696;SDS011;68167;59.120;37.898;2024-02-23T04:53:18;24.17;;;10.80;;
71696;SDS011;68167;59.120;37.898;2024-02-23T04:55:45;22.70;;;11.13;;
71696;SDS011;68167;59.120;37.898;2024-02-23T04:58:11;24.60;;;10.17;;
71696;SDS011;68167;59.120;37.898;2024-02-23T05:00:38;23.67;;;9.97;;
71696;SDS011;68167;59.120;37.898;2024-02-23T05:03:05;27.40;;;10.07;;
71696;SDS011;68167;59.120;37.898;2024-02-23T05:05:32;24.50;;;9.93;;
71696;SDS011;68167;59.120;37.898;2024-02-23T05:07:58;22.60;;;10.00;;
71696;SDS011;68167;59.120;37.898;2024-02-23T05:10:25;22.83;;;11.30;;
71696;SDS011;68167;59.120;37.898;2024-02-23T05:12:52;20.87;;;9.53;;
71696;SDS011;68167;59.120;37.898;2024-02-23T05:15:18;26.83;;;10.97;;
71696;SDS011;68167;59.120;37.898;2024-02-23T05:17:44;19.17;;;9.80;;
71696;SDS011;68167;59.120;37.898;2024-02-23T05:20:11;23.63;;;10.47;;
71696;SDS011;68167;59.120;37.898;2024-02-23T05:22:38;23.23;;;10.47;;
71696;SDS011;68167;59.120;37.898;2024-02-23T05:25:05;20.10;;;10.17;;
71696;SDS011;68167;59.120;37.898;2024-02-23T05:27:32;26.80;;;11.27;;
71696;SDS011;68167;59.120;37.898;2024-02-23T05:29:58;22.50;;;10.17;;
71696;SDS011;68167;59.120;37.898;2024-02-23T05:32:25;24.97;;;10.67;;
71696;SDS011;68167;59.120;37.898;2024-02-23T05:34:51;23.67;;;11.30;;
71696;SDS011;68167;59.120;37.898;2024-02-23T05:37:19;20.87;;;10.80;;
71696;SDS011;68167;59.120;37.898;2024-02-23T05:39:46;21.37;;;10.00;;
71696;SDS011;68167;59.120;37.898;2024-02-23T05:42:22;21.53;;;10.10;;
71696;SDS011;68167;59.120;37.898;2024-02-23T05:44:48;21.50;;;10.27;;
71696;SDS011;68167;59.120;37.898;2024-02-23T05:47:14;18.53;;;9.60;;
71696;SDS011;68167;59.120;37.898;2024-02-23T05:49:40;23.13;;;10.67;;
71696;SDS011;68167;59.120;37.898;2024-02-23T05:52:09;25.15;;;11.15;;
71696;SDS011;68167;59.120;37.898;2024-02-23T05:54:35;20.80;;;9.93;;
71696;SDS011;68167;59.120;37.898;2024-02-23T05:57:02;21.10;;;9.47;;
71696;SDS011;68167;59.120;37.898;2024-02-23T05:59:30;19.70;;;9.73;;
71696;SDS011;68167;59.120;37.898;2024-02-23T06:01:57;17.50;;;9.27;;
71696;SDS011;68167;59.120;37.898;2024-02-23T06:04:27;20.93;;;10.00;;
71696;SDS011;68167;59.120;37.898;2024-02-23T06:06:54;19.17;;;9.20;;
71696;SDS011;68167;59.120;37.898;2024-02-23T06:09:23;20.50;;;9.83;;
71696;SDS011;68167;59.120;37.898;2024-02-23T06:11:56;23.17;;;10.70;;
71696;SDS011;68167;59.120;37.898;2024-02-23T06:14:22;26.03;;;9.77;;
71696;SDS011;68167;59.120;37.898;2024-02-23T06:16:51;19.77;;;9.80;;
71696;SDS011;68167;59.120;37.898;2024-02-23T06:19:18;22.33;;;9.77;;
71696;SDS011;68167;59.120;37.898;2024-02-23T06:21:48;16.77;;;8.57;;
71696;SDS011;68167;59.120;37.898;2024-02-23T06:24:17;18.97;;;9.13;;
71696;SDS011;68167;59.120;37.898;2024-02-23T06:26:43;20.83;;;8.67;;
71696;SDS011;68167;59.120;37.898;2024-02-23T06:29:11;18.83;;;9.13;;
71696;SDS011;68167;59.120;37.898;2024-02-23T06:31:39;22.70;;;10.07;;
71696;SDS011;68167;59.120;37.898;2024-02-23T06:34:08;20.77;;;9.07;;
71696;SDS011;68167;59.120;37.898;2024-02-23T06:36:35;18.97;;;8.60;;
71696;SDS011;68167;59.120;37.898;2024-02-23T06:39:04;22.07;;;9.60;;
71696;SDS011;68167;59.120;37.898;2024-02-23T06:41:37;18.53;;;8.67;;
71696;SDS011;68167;59.120;37.898;2024-02-23T06:44:07;17.07;;;8.83;;
71696;SDS011;68167;59.120;37.898;2024-02-23T06:46:33;15.30;;;8.90;;
71696;SDS011;68167;59.120;37.898;2024-02-23T06:48:59;19.57;;;8.80;;
71696;SDS011;68167;59.120;37.898;2024-02-23T06:51:31;17.30;;;8.33;;
71696;SDS011;68167;59.120;37.898;2024-02-23T06:53:58;18.20;;;8.63;;
71696;SDS011;68167;59.120;37.898;2024-02-23T06:56:24;15.50;;;8.67;;
71696;SDS011;68167;59.120;37.898;2024-02-23T06:58:53;17.80;;;8.73;;
71696;SDS011;68167;59.120;37.898;2024-02-23T07:01:20;21.43;;;8.97;;
71696;SDS011;68167;59.120;37.898;2024-02-23T07:03:46;18.83;;;8.53;;
71696;SDS011;68167;59.120;37.898;2024-02-23T07:06:14;17.63;;;8.20;;
71696;SDS011;68167;59.120;37.898;2024-02-23T07:08:44;17.17;;;8.47;;
71696;SDS011;68167;59.120;37.898;2024-02-23T07:11:11;15.77;;;8.33;;
71696;SDS011;68167;59.120;37.898;2024-02-23T07:13:38;18.50;;;9.13;;
71696;SDS011;68167;59.120;37.898;2024-02-23T07:16:04;16.87;;;8.67;;
71696;SDS011;68167;59.120;37.898;2024-02-23T07:18:31;16.47;;;8.23;;
71696;SDS011;68167;59.120;37.898;2024-02-23T07:20:58;17.57;;;8.47;;
71696;SDS011;68167;59.120;37.898;2024-02-23T07:23:24;17.03;;;8.67;;
71696;SDS011;68167;59.120;37.898;2024-02-23T07:25:51;21.60;;;8.63;;
71696;SDS011;68167;59.120;37.898;2024-02-23T07:28:17;23.57;;;8.07;;
71696;SDS011;68167;59.120;37.898;2024-02-23T07:30:45;19.73;;;8.40;;
71696;SDS011;68167;59.120;37.898;2024-02-23T07:33:12;14.63;;;7.73;;
71696;SDS011;68167;59.120;37.898;2024-02-23T07:35:38;18.33;;;8.70;;
71696;SDS011;68167;59.120;37.898;2024-02-23T07:38:05;17.53;;;8.10;;
71696;SDS011;68167;59.120;37.898;2024-02-23T07:40:31;20.00;;;8.50;;
71696;SDS011;68167;59.120;37.898;2024-02-23T07:42:58;16.70;;;8.77;;
71696;SDS011;68167;59.120;37.898;2024-02-23T07:45:24;15.23;;;7.93;;
71696;SDS011;68167;59.120;37.898;2024-02-23T07:47:51;15.83;;;8.33;;
71696;SDS011;68167;59.120;37.898;2024-02-23T07:50:17;18.67;;;7.87;;
71696;SDS011;68167;59.120;37.898;2024-02-23T07:52:44;16.63;;;7.93;;
71696;SDS011;68167;59.120;37.898;2024-02-23T07:55:11;14.57;;;8.07;;
71696;SDS011;68167;59.120;37.898;2024-02-23T07:57:38;14.93;;;8.10;;
71696;SDS011;68167;59.120;37.898;2024-02-23T08:00:05;16.63;;;8.47;;
71696;SDS011;68167;59.120;37.898;2024-02-23T08:02:38;17.43;;;7.57;;
71696;SDS011;68167;59.120;37.898;2024-02-23T08:05:06;15.53;;;8.37;;
71696;SDS011;68167;59.120;37.898;2024-02-23T08:07:33;15.23;;;7.80;;
71696;SDS011;68167;59.120;37.898;2024-02-23T08:09:59;15.87;;;8.37;;
71696;SDS011;68167;59.120;37.898;2024-02-23T08:12:25;16.27;;;8.07;;
71696;SDS011;68167;59.120;37.898;2024-02-23T08:14:52;15.73;;;8.03;;
71696;SDS011;68167;59.120;37.898;2024-02-23T08:17:19;18.97;;;7.87;;
71696;SDS011;68167;59.120;37.898;2024-02-23T08:19:46;14.43;;;7.60;;
71696;SDS011;68167;59.120;37.898;2024-02-23T08:22:12;15.57;;;7.30;;
71696;SDS011;68167;59.120;37.898;2024-02-23T08:24:38;14.43;;;8.23;;
71696;SDS011;68167;59.120;37.898;2024-02-23T08:27:04;17.60;;;7.87;;
71696;SDS011;68167;59.120;37.898;2024-02-23T08:29:31;17.17;;;8.60;;
71696;SDS011;68167;59.120;37.898;2024-02-23T08:31:57;14.93;;;7.87;;
71696;SDS011;68167;59.120;37.898;2024-02-23T08:34:23;15.13;;;7.70;;
71696;SDS011;68167;59.120;37.898;2024-02-23T08:36:50;16.57;;;7.90;;
71696;SDS011;68167;59.120;37.898;2024-02-23T08:39:17;16.60;;;8.50;;
71696;SDS011;68167;59.120;37.898;2024-02-23T08:41:43;17.83;;;8.63;;
71696;SDS011;68167;59.120;37.898;2024-02-23T08:44:09;16.00;;;8.47;;
71696;SDS011;68167;59.120;37.898;2024-02-23T08:46:35;16.30;;;7.97;;
71696;SDS011;68167;59.120;37.898;2024-02-23T08:49:05;16.80;;;8.20;;
71696;SDS011;68167;59.120;37.898;2024-02-23T08:51:31;17.97;;;8.77;;
71696;SDS011;68167;59.120;37.898;2024-02-23T08:53:57;17.53;;;8.57;;
71696;SDS011;68167;59.120;37.898;2024-02-23T08:56:29;17.73;;;8.23;;
71696;SDS011;68167;59.120;37.898;2024-02-23T08:58:55;19.80;;;9.00;;
71696;SDS011;68167;59.120;37.898;2024-02-23T09:01:21;16.87;;;8.83;;
71696;SDS011;68167;59.120;37.898;2024-02-23T09:03:47;19.40;;;9.53;;
71696;SDS011;68167;59.120;37.898;2024-02-23T09:06:14;16.87;;;7.53;;
71696;SDS011;68167;59.120;37.898;2024-02-23T09:08:40;18.90;;;8.83;;
71696;SDS011;68167;59.120;37.898;2024-02-23T09:11:07;19.90;;;8.67;;
71696;SDS011;68167;59.120;37.898;2024-02-23T09:13:33;17.43;;;9.07;;
71696;SDS011;68167;59.120;37.898;2024-02-23T09:15:59;18.93;;;8.60;;
71696;SDS011;68167;59.120;37.898;2024-02-23T09:18:35;16.40;;;8.43;;
71696;SDS011;68167;59.120;37.898;2024-02-23T09:21:02;16.20;;;8.03;;
71696;SDS011;68167;59.120;37.898;2024-02-23T09:23:31;18.23;;;8.87;;
71696;SDS011;68167;59.120;37.898;2024-02-23T09:25:58;16.07;;;7.90;;
71696;SDS011;68167;59.120;37.898;2024-02-23T09:28:25;18.83;;;9.03;;
71696;SDS011;68167;59.120;37.898;2024-02-23T09:30:51;17.53;;;8.30;;
71696;SDS011;68167;59.120;37.898;2024-02-23T09:33:17;14.60;;;8.20;;
71696;SDS011;68167;59.120;37.898;2024-02-23T09:35:44;17.50;;;8.53;;
71696;SDS011;68167;59.120;37.898;2024-02-23T09:38:10;16.43;;;8.60;;
71696;SDS011;68167;59.120;37.898;2024-02-23T09:40:36;17.50;;;8.43;;
71696;SDS011;68167;59.120;37.898;2024-02-23T09:43:04;17.67;;;8.07;;
71696;SDS011;68167;59.120;37.898;2024-02-23T09:45:34;19.70;;;8.80;;
71696;SDS011;68167;59.120;37.898;2024-02-23T09:48:01;17.43;;;9.30;;
71696;SDS011;68167;59.120;37.898;2024-02-23T09:50:29;18.20;;;9.53;;
71696;SDS011;68167;59.120;37.898;2024-02-23T09:52:56;17.87;;;9.40;;
71696;SDS011;68167;59.120;37.898;2024-02-23T09:55:24;14.80;;;8.73;;
71696;SDS011;68167;59.120;37.898;2024-02-23T09:57:51;16.67;;;8.33;;
71696;SDS011;68167;59.120;37.898;2024-02-23T10:00:22;17.97;;;9.07;;
71696;SDS011;68167;59.120;37.898;2024-02-23T10:02:49;16.90;;;9.13;;
71696;SDS011;68167;59.120;37.898;2024-02-23T10:05:16;14.83;;;8.10;;
71696;SDS011;68167;59.120;37.898;2024-02-23T10:07:43;21.53;;;8.73;;
71696;SDS011;68167;59.120;37.898;2024-02-23T10:10:10;15.87;;;8.20;;
71696;SDS011;68167;59.120;37.898;2024-02-23T10:12:39;19.90;;;9.10;;
71696;SDS011;68167;59.120;37.898;2024-02-23T10:15:05;20.10;;;9.20;;
71696;SDS011;68167;59.120;37.898;2024-02-23T10:17:32;21.13;;;9.67;;
71696;SDS011;68167;59.120;37.898;2024-02-23T10:19:59;17.43;;;8.30;;
71696;SDS011;68167;59.120;37.898;2024-02-23T10:22:25;21.43;;;10.07;;
71696;SDS011;68167;59.120;37.898;2024-02-23T10:24:54;16.57;;;8.47;;
71696;SDS011;68167;59.120;37.898;2024-02-23T10:27:21;21.13;;;8.97;;
71696;SDS011;68167;59.120;37.898;2024-02-23T10:29:51;20.40;;;9.03;;
71696;SDS011;68167;59.120;37.898;2024-02-23T10:32:18;22.43;;;9.77;;
71696;SDS011;68167;59.120;37.898;2024-02-23T10:34:50;19.63;;;9.27;;
71696;SDS011;68167;59.120;37.898;2024-02-23T10:37:18;23.53;;;9.33;;
71696;SDS011;68167;59.120;37.898;2024-02-23T10:39:44;19.47;;;9.07;;
71696;SDS011;68167;59.120;37.898;2024-02-23T10:42:12;17.83;;;9.53;;
71696;SDS011;68167;59.120;37.898;2024-02-23T10:44:38;19.23;;;9.47;;
71696;SDS011;68167;59.120;37.898;2024-02-23T10:47:07;20.17;;;9.10;;
71696;SDS011;68167;59.120;37.898;2024-02-23T10:49:38;18.20;;;8.97;;
71696;SDS011;68167;59.120;37.898;2024-02-23T10:52:08;22.43;;;10.40;;
71696;SDS011;68167;59.120;37.898;2024-02-23T10:54:37;16.97;;;8.40;;
71696;SDS011;68167;59.120;37.898;2024-02-23T10:57:05;17.73;;;9.07;;
71696;SDS011;68167;59.120;37.898;2024-02-23T10:59:32;19.00;;;9.67;;
71696;SDS011;68167;59.120;37.898;2024-02-23T11:01:59;19.20;;;9.33;;
71696;SDS011;68167;59.120;37.898;2024-02-23T11:04:27;20.27;;;9.50;;
71696;SDS011;68167;59.120;37.898;2024-02-23T11:06:55;20.60;;;8.87;;
71696;SDS011;68167;59.120;37.898;2024-02-23T11:09:24;19.87;;;8.93;;
71696;SDS011;68167;59.120;37.898;2024-02-23T11:11:57;18.60;;;8.80;;
71696;SDS011;68167;59.120;37.898;2024-02-23T11:14:37;21.93;;;9.10;;
71696;SDS011;68167;59.120;37.898;2024-02-23T11:17:05;21.67;;;8.57;;
71696;SDS011;68167;59.120;37.898;2024-02-23T11:19:32;18.60;;;8.50;;
71696;SDS011;68167;59.120;37.898;2024-02-23T11:21:59;18.00;;;8.03;;
71696;SDS011;68167;59.120;37.898;2024-02-23T11:24:30;20.70;;;9.00;;
71696;SDS011;68167;59.120;37.898;2024-02-23T11:27:00;27.00;;;8.23;;
71696;SDS011;68167;59.120;37.898;2024-02-23T11:29:34;22.20;;;8.97;;
71696;SDS011;68167;59.120;37.898;2024-02-23T11:32:02;19.43;;;8.73;;
71696;SDS011;68167;59.120;37.898;2024-02-23T11:34:30;16.20;;;7.73;;
71696;SDS011;68167;59.120;37.898;2024-02-23T11:36:56;18.00;;;8.30;;
71696;SDS011;68167;59.120;37.898;2024-02-23T11:39:25;20.87;;;8.60;;
71696;SDS011;68167;59.120;37.898;2024-02-23T11:41:58;17.73;;;8.93;;
71696;SDS011;68167;59.120;37.898;2024-02-23T11:44:26;16.43;;;8.23;;
71696;SDS011;68167;59.120;37.898;2024-02-23T11:46:52;18.37;;;8.50;;
71696;SDS011;68167;59.120;37.898;2024-02-23T11:49:26;16.07;;;9.03;;
71696;SDS011;68167;59.120;37.898;2024-02-23T11:51:55;15.67;;;8.03;;
71696;SDS011;68167;59.120;37.898;2024-02-23T11:54:22;16.30;;;8.00;;
71696;SDS011;68167;59.120;37.898;2024-02-23T11:56:48;12.57;;;7.07;;
71696;SDS011;68167;59.120;37.898;2024-02-23T11:59:19;15.47;;;7.67;;
71696;SDS011;68167;59.120;37.898;2024-02-23T12:01:46;14.37;;;7.13;;
71696;SDS011;68167;59.120;37.898;2024-02-23T12:04:15;16.73;;;7.60;;
71696;SDS011;68167;59.120;37.898;2024-02-23T12:06:42;15.67;;;7.20;;
71696;SDS011;68167;59.120;37.898;2024-02-23T12:09:08;18.00;;;8.03;;
71696;SDS011;68167;59.120;37.898;2024-02-23T12:11:36;17.30;;;7.30;;
71696;SDS011;68167;59.120;37.898;2024-02-23T12:14:02;15.07;;;7.07;;
71696;SDS011;68167;59.120;37.898;2024-02-23T12:16:33;12.33;;;6.20;;
71696;SDS011;68167;59.120;37.898;2024-02-23T12:19:04;14.53;;;7.30;;
71696;SDS011;68167;59.120;37.898;2024-02-23T12:21:30;15.40;;;6.77;;
71696;SDS011;68167;59.120;37.898;2024-02-23T12:24:03;11.67;;;6.70;;
71696;SDS011;68167;59.120;37.898;2024-02-23T12:26:32;13.77;;;6.80;;
71696;SDS011;68167;59.120;37.898;2024-02-23T12:29:02;14.07;;;6.57;;
71696;SDS011;68167;59.120;37.898;2024-02-23T12:31:30;14.43;;;6.67;;
71696;SDS011;68167;59.120;37.898;2024-02-23T12:33:58;12.87;;;7.17;;
71696;SDS011;68167;59.120;37.898;2024-02-23T12:36:24;13.83;;;6.83;;
71696;SDS011;68167;59.120;37.898;2024-02-23T12:38:50;14.57;;;6.33;;
71696;SDS011;68167;59.120;37.898;2024-02-23T12:41:17;11.37;;;6.27;;
71696;SDS011;68167;59.120;37.898;2024-02-23T12:43:47;14.33;;;7.13;;
71696;SDS011;68167;59.120;37.898;2024-02-23T12:46:13;10.37;;;5.50;;
71696;SDS011;68167;59.120;37.898;2024-02-23T12:48:39;11.37;;;6.27;;
71696;SDS011;68167;59.120;37.898;2024-02-23T12:51:06;12.63;;;7.10;;
71696;SDS011;68167;59.120;37.898;2024-02-23T12:53:33;11.17;;;6.27;;
71696;SDS011;68167;59.120;37.898;2024-02-23T12:56:05;15.77;;;6.67;;
71696;SDS011;68167;59.120;37.898;2024-02-23T12:58:37;13.80;;;6.50;;
71696;SDS011;68167;59.120;37.898;2024-02-23T13:01:05;10.60;;;6.33;;
71696;SDS011;68167;59.120;37.898;2024-02-23T13:03:33;14.93;;;6.43;;
71696;SDS011;68167;59.120;37.898;2024-02-23T13:06:00;11.67;;;5.87;;
71696;SDS011;68167;59.120;37.898;2024-02-23T13:08:28;9.90;;;5.10;;
71696;SDS011;68167;59.120;37.898;2024-02-23T13:10:56;12.87;;;6.60;;
71696;SDS011;68167;59.120;37.898;2024-02-23T13:13:23;11.27;;;5.20;;
71696;SDS011;68167;59.120;37.898;2024-02-23T13:15:52;13.93;;;7.73;;
71696;SDS011;68167;59.120;37.898;2024-02-23T13:18:22;14.37;;;6.70;;
71696;SDS011;68167;59.120;37.898;2024-02-23T13:20:48;13.73;;;6.57;;
71696;SDS011;68167;59.120;37.898;2024-02-23T13:23:15;9.83;;;5.70;;
71696;SDS011;68167;59.120;37.898;2024-02-23T13:25:42;10.00;;;5.60;;
71696;SDS011;68167;59.120;37.898;2024-02-23T13:28:08;12.50;;;6.37;;
71696;SDS011;68167;59.120;37.898;2024-02-23T13:30:35;11.87;;;6.20;;
71696;SDS011;68167;59.120;37.898;2024-02-23T13:33:03;11.63;;;6.13;;
71696;SDS011;68167;59.120;37.898;2024-02-23T13:35:30;10.17;;;5.67;;
71696;SDS011;68167;59.120;37.898;2024-02-23T13:37:57;9.90;;;6.10;;
71696;SDS011;68167;59.120;37.898;2024-02-23T13:40:23;10.67;;;6.17;;
71696;SDS011;68167;59.120;37.898;2024-02-23T13:42:50;11.73;;;6.57;;
71696;SDS011;68167;59.120;37.898;2024-02-23T13:45:19;13.90;;;6.07;;
71696;SDS011;68167;59.120;37.898;2024-02-23T13:47:56;12.13;;;6.27;;
71696;SDS011;68167;59.120;37.898;2024-02-23T13:50:27;12.07;;;6.33;;
71696;SDS011;68167;59.120;37.898;2024-02-23T13:52:53;10.43;;;6.03;;
71696;SDS011;68167;59.120;37.898;2024-02-23T13:55:20;11.47;;;6.10;;
71696;SDS011;68167;59.120;37.898;2024-02-23T13:57:47;10.67;;;6.07;;
71696;SDS011;68167;59.120;37.898;2024-02-23T14:00:17;9.67;;;5.57;;
71696;SDS011;68167;59.120;37.898;2024-02-23T14:02:45;12.40;;;6.33;;
71696;SDS011;68167;59.120;37.898;2024-02-23T14:05:12;10.47;;;5.80;;
71696;SDS011;68167;59.120;37.898;2024-02-23T14:07:39;11.70;;;5.53;;
71696;SDS011;68167;59.120;37.898;2024-02-23T14:10:05;11.60;;;6.27;;
71696;SDS011;68167;59.120;37.898;2024-02-23T14:12:33;11.53;;;5.97;;
71696;SDS011;68167;59.120;37.898;2024-02-23T14:15:00;13.27;;;6.37;;
71696;SDS011;68167;59.120;37.898;2024-02-23T14:17:27;11.90;;;6.60;;